sensor_id;sensor_type;location;lat;lon;timestamp;temperature;humidity
17994;DHT22;9122;48.406;9.984;2024-01-30T00:01:26;4.50;98.70
17994;DHT22;9122;48.406;9.984;2024-01-30T00:04:10;4.30;98.50
17994;DHT22;9122;48.406;9.984;2024-01-30T00:06:55;4.50;99.90
17994;DHT22;9122;48.406;9.984;2024-01-30T00:09:39;4.40;98.40
17994;DHT22;9122;48.406;9.984;2024-01-30T00:12:24;4.30;99.90
17994;DHT22;9122;48.406;9.984;2024-01-30T00:15:08;4.40;98.20
17994;DHT22;9122;48.406;9.984;2024-01-30T00:20:38;4.30;98.20
17994;DHT22;9122;48.406;9.984;2024-01-30T00:26:06;4.30;98.20
17994;DHT22;9122;48.406;9.984;2024-01-30T00:28:51;4.50;98.40
17994;DHT22;9122;48.406;9.984;2024-01-30T00:34:20;4.20;97.90
17994;DHT22;9122;48.406;9.984;2024-01-30T00:37:05;3.80;98.00
17994;DHT22;9122;48.406;9.984;2024-01-30T00:39:49;4.20;99.90
17994;DHT22;9122;48.406;9.984;2024-01-30T00:42:33;5.30;98.20
17994;DHT22;9122;48.406;9.984;2024-01-30T00:45:17;4.00;97.80
17994;DHT22;9122;48.406;9.984;2024-01-30T00:48:02;4.10;97.80
17994;DHT22;9122;48.406;9.984;2024-01-30T00:50:47;4.10;97.80
17994;DHT22;9122;48.406;9.984;2024-01-30T00:53:31;4.90;98.20
17994;DHT22;9122;48.406;9.984;2024-01-30T00:56:15;4.50;98.40
17994;DHT22;9122;48.406;9.984;2024-01-30T00:59:02;4.00;98.00
17994;DHT22;9122;48.406;9.984;2024-01-30T01:01:46;4.80;98.30
17994;DHT22;9122;48.406;9.984;2024-01-30T01:07:15;4.00;97.90
17994;DHT22;9122;48.406;9.984;2024-01-30T01:09:59;4.30;98.40
17994;DHT22;9122;48.406;9.984;2024-01-30T01:12:48;3.90;98.30
17994;DHT22;9122;48.406;9.984;2024-01-30T01:15:32;3.90;98.40
17994;DHT22;9122;48.406;9.984;2024-01-30T01:21:01;3.80;98.10
17994;DHT22;9122;48.406;9.984;2024-01-30T01:26:30;3.80;98.20
17994;DHT22;9122;48.406;9.984;2024-01-30T01:29:14;3.80;99.90
17994;DHT22;9122;48.406;9.984;2024-01-30T01:31:59;3.40;98.40
17994;DHT22;9122;48.406;9.984;2024-01-30T01:34:44;3.40;98.50
17994;DHT22;9122;48.406;9.984;2024-01-30T01:37:28;4.10;99.00
17994;DHT22;9122;48.406;9.984;2024-01-30T01:40:12;3.60;98.60
17994;DHT22;9122;48.406;9.984;2024-01-30T01:45:41;3.60;98.70
17994;DHT22;9122;48.406;9.984;2024-01-30T01:48:26;3.50;99.10
17994;DHT22;9122;48.406;9.984;2024-01-30T01:51:10;3.50;99.90
17994;DHT22;9122;48.406;9.984;2024-01-30T01:53:56;3.50;99.30
17994;DHT22;9122;48.406;9.984;2024-01-30T01:56:42;3.50;99.40
17994;DHT22;9122;48.406;9.984;2024-01-30T01:59:26;3.10;99.30
17994;DHT22;9122;48.406;9.984;2024-01-30T02:02:11;3.20;99.30
17994;DHT22;9122;48.406;9.984;2024-01-30T02:04:57;3.50;99.90
17994;DHT22;9122;48.406;9.984;2024-01-30T02:07:43;3.40;99.30
17994;DHT22;9122;48.406;9.984;2024-01-30T02:10:27;3.40;99.90
17994;DHT22;9122;48.406;9.984;2024-01-30T02:13:12;3.40;99.30
17994;DHT22;9122;48.406;9.984;2024-01-30T02:15:57;4.80;99.90
17994;DHT22;9122;48.406;9.984;2024-01-30T02:18:41;3.10;99.50
17994;DHT22;9122;48.406;9.984;2024-01-30T02:21:31;3.10;99.40
17994;DHT22;9122;48.406;9.984;2024-01-30T02:24:16;3.40;99.90
17994;DHT22;9122;48.406;9.984;2024-01-30T02:27:00;3.00;99.40
17994;DHT22;9122;48.406;9.984;2024-01-30T02:29:45;3.40;99.60
17994;DHT22;9122;48.406;9.984;2024-01-30T02:32:29;3.20;99.50
17994;DHT22;9122;48.406;9.984;2024-01-30T02:37:58;3.40;99.90
17994;DHT22;9122;48.406;9.984;2024-01-30T02:40:42;3.30;99.60
17994;DHT22;9122;48.406;9.984;2024-01-30T02:43:27;3.30;99.80
17994;DHT22;9122;48.406;9.984;2024-01-30T02:46:11;3.30;99.90
17994;DHT22;9122;48.406;9.984;2024-01-30T02:48:55;3.30;99.90
17994;DHT22;9122;48.406;9.984;2024-01-30T02:51:40;3.30;99.90
17994;DHT22;9122;48.406;9.984;2024-01-30T02:54:24;3.30;99.80
17994;DHT22;9122;48.406;9.984;2024-01-30T02:57:09;3.30;99.60
17994;DHT22;9122;48.406;9.984;2024-01-30T02:59:53;3.30;99.50
17994;DHT22;9122;48.406;9.984;2024-01-30T03:06:22;3.30;99.30
17994;DHT22;9122;48.406;9.984;2024-01-30T03:09:07;3.20;99.30
17994;DHT22;9122;48.406;9.984;2024-01-30T03:11:53;3.20;99.40
17994;DHT22;9122;48.406;9.984;2024-01-30T03:14:37;3.10;99.40
17994;DHT22;9122;48.406;9.984;2024-01-30T03:17:21;3.20;99.50
17994;DHT22;9122;48.406;9.984;2024-01-30T03:20:06;3.20;99.60
17994;DHT22;9122;48.406;9.984;2024-01-30T03:22:51;3.20;99.70
17994;DHT22;9122;48.406;9.984;2024-01-30T03:25:35;3.20;99.70
17994;DHT22;9122;48.406;9.984;2024-01-30T03:28:19;2.90;99.70
17994;DHT22;9122;48.406;9.984;2024-01-30T03:31:03;3.10;99.80
17994;DHT22;9122;48.406;9.984;2024-01-30T03:33:48;3.10;99.90
17994;DHT22;9122;48.406;9.984;2024-01-30T03:36:32;3.10;99.90
17994;DHT22;9122;48.406;9.984;2024-01-30T03:39:18;2.90;99.90
17994;DHT22;9122;48.406;9.984;2024-01-30T03:42:03;3.10;99.90
17994;DHT22;9122;48.406;9.984;2024-01-30T03:44:47;3.10;99.90
17994;DHT22;9122;48.406;9.984;2024-01-30T03:50:16;3.10;99.90
17994;DHT22;9122;48.406;9.984;2024-01-30T03:53:00;3.00;99.90
17994;DHT22;9122;48.406;9.984;2024-01-30T03:55:44;3.00;99.90
17994;DHT22;9122;48.406;9.984;2024-01-30T03:58:28;2.90;99.90
17994;DHT22;9122;48.406;9.984;2024-01-30T04:01:14;3.10;99.90
17994;DHT22;9122;48.406;9.984;2024-01-30T04:03:59;3.10;99.90
17994;DHT22;9122;48.406;9.984;2024-01-30T04:06:44;3.10;99.90
17994;DHT22;9122;48.406;9.984;2024-01-30T04:09:28;2.90;99.90
17994;DHT22;9122;48.406;9.984;2024-01-30T04:12:13;3.10;99.90
17994;DHT22;9122;48.406;9.984;2024-01-30T04:14:57;3.10;99.90
17994;DHT22;9122;48.406;9.984;2024-01-30T04:17:44;3.90;99.90
17994;DHT22;9122;48.406;9.984;2024-01-30T04:20:29;3.00;99.90
17994;DHT22;9122;48.406;9.984;2024-01-30T04:23:13;2.70;99.90
17994;DHT22;9122;48.406;9.984;2024-01-30T04:25:58;3.10;99.90
17994;DHT22;9122;48.406;9.984;2024-01-30T04:28:44;3.00;99.90
17994;DHT22;9122;48.406;9.984;2024-01-30T04:31:28;2.60;99.90
17994;DHT22;9122;48.406;9.984;2024-01-30T04:34:13;3.00;99.90
17994;DHT22;9122;48.406;9.984;2024-01-30T04:39:42;3.00;99.90
17994;DHT22;9122;48.406;9.984;2024-01-30T04:42:27;2.60;99.90
17994;DHT22;9122;48.406;9.984;2024-01-30T04:45:12;2.90;99.90
17994;DHT22;9122;48.406;9.984;2024-01-30T04:50:41;2.90;99.90
17994;DHT22;9122;48.406;9.984;2024-01-30T04:53:25;2.90;99.90
17994;DHT22;9122;48.406;9.984;2024-01-30T04:56:09;2.70;99.90
17994;DHT22;9122;48.406;9.984;2024-01-30T04:58:54;2.90;99.90
17994;DHT22;9122;48.406;9.984;2024-01-30T05:01:38;3.90;99.90
17994;DHT22;9122;48.406;9.984;2024-01-30T05:04:22;2.80;99.90
17994;DHT22;9122;48.406;9.984;2024-01-30T05:07:06;2.40;99.60
17994;DHT22;9122;48.406;9.984;2024-01-30T05:09:50;3.00;99.80
17994;DHT22;9122;48.406;9.984;2024-01-30T05:15:19;2.80;99.40
17994;DHT22;9122;48.406;9.984;2024-01-30T05:18:04;3.60;99.90
17994;DHT22;9122;48.406;9.984;2024-01-30T05:20:52;2.80;99.80
17994;DHT22;9122;48.406;9.984;2024-01-30T05:23:36;2.50;99.80
17994;DHT22;9122;48.406;9.984;2024-01-30T05:26:20;2.70;99.90
17994;DHT22;9122;48.406;9.984;2024-01-30T05:29:07;2.60;99.90
17994;DHT22;9122;48.406;9.984;2024-01-30T05:31:51;2.70;99.80
17994;DHT22;9122;48.406;9.984;2024-01-30T05:34:36;2.70;99.90
17994;DHT22;9122;48.406;9.984;2024-01-30T05:37:20;2.40;99.70
17994;DHT22;9122;48.406;9.984;2024-01-30T05:40:04;2.40;99.60
17994;DHT22;9122;48.406;9.984;2024-01-30T05:42:49;2.70;99.60
17994;DHT22;9122;48.406;9.984;2024-01-30T05:45:33;2.70;99.60
17994;DHT22;9122;48.406;9.984;2024-01-30T05:48:19;3.20;99.70
17994;DHT22;9122;48.406;9.984;2024-01-30T05:51:03;2.60;99.60
17994;DHT22;9122;48.406;9.984;2024-01-30T05:53:48;2.60;99.70
17994;DHT22;9122;48.406;9.984;2024-01-30T05:56:32;2.60;99.70
17994;DHT22;9122;48.406;9.984;2024-01-30T05:59:16;2.60;99.90
17994;DHT22;9122;48.406;9.984;2024-01-30T06:02:00;2.40;99.80
17994;DHT22;9122;48.406;9.984;2024-01-30T06:04:44;2.60;99.90
17994;DHT22;9122;48.406;9.984;2024-01-30T06:07:28;2.60;99.90
17994;DHT22;9122;48.406;9.984;2024-01-30T06:10:13;2.50;99.90
17994;DHT22;9122;48.406;9.984;2024-01-30T06:12:57;2.50;99.90
17994;DHT22;9122;48.406;9.984;2024-01-30T06:15:41;2.50;99.90
17994;DHT22;9122;48.406;9.984;2024-01-30T06:18:25;2.20;99.90
17994;DHT22;9122;48.406;9.984;2024-01-30T06:23:57;2.50;99.90
17994;DHT22;9122;48.406;9.984;2024-01-30T06:26:41;2.50;99.90
17994;DHT22;9122;48.406;9.984;2024-01-30T06:29:26;2.40;99.90
17994;DHT22;9122;48.406;9.984;2024-01-30T06:32:10;2.50;99.90
17994;DHT22;9122;48.406;9.984;2024-01-30T06:34:54;2.10;99.90
17994;DHT22;9122;48.406;9.984;2024-01-30T06:44:19;2.50;99.90
17994;DHT22;9122;48.406;9.984;2024-01-30T06:47:06;3.00;99.90
17994;DHT22;9122;48.406;9.984;2024-01-30T06:49:50;2.40;99.90
17994;DHT22;9122;48.406;9.984;2024-01-30T06:52:35;3.20;99.90
17994;DHT22;9122;48.406;9.984;2024-01-30T06:58:04;2.40;99.50
17994;DHT22;9122;48.406;9.984;2024-01-30T07:00:48;2.30;99.70
17994;DHT22;9122;48.406;9.984;2024-01-30T07:03:33;2.40;99.80
17994;DHT22;9122;48.406;9.984;2024-01-30T07:06:17;2.70;99.80
17994;DHT22;9122;48.406;9.984;2024-01-30T07:09:02;2.40;99.80
17994;DHT22;9122;48.406;9.984;2024-01-30T07:11:47;2.40;99.90
17994;DHT22;9122;48.406;9.984;2024-01-30T07:14:31;2.40;99.90
17994;DHT22;9122;48.406;9.984;2024-01-30T07:17:16;2.70;99.90
17994;DHT22;9122;48.406;9.984;2024-01-30T07:20:01;2.50;99.90
17994;DHT22;9122;48.406;9.984;2024-01-30T07:22:47;2.50;99.90
17994;DHT22;9122;48.406;9.984;2024-01-30T07:25:31;2.60;99.90
17994;DHT22;9122;48.406;9.984;2024-01-30T07:28:15;2.40;99.90
17994;DHT22;9122;48.406;9.984;2024-01-30T07:31:01;4.00;99.90
17994;DHT22;9122;48.406;9.984;2024-01-30T07:33:46;3.30;99.90
17994;DHT22;9122;48.406;9.984;2024-01-30T07:36:30;2.50;99.90
17994;DHT22;9122;48.406;9.984;2024-01-30T07:39:14;2.50;99.90
17994;DHT22;9122;48.406;9.984;2024-01-30T07:41:59;2.90;99.90
17994;DHT22;9122;48.406;9.984;2024-01-30T07:44:43;3.10;99.90
17994;DHT22;9122;48.406;9.984;2024-01-30T07:47:28;3.00;99.90
17994;DHT22;9122;48.406;9.984;2024-01-30T07:50:12;3.10;99.90
17994;DHT22;9122;48.406;9.984;2024-01-30T07:52:57;3.00;99.90
17994;DHT22;9122;48.406;9.984;2024-01-30T07:55:41;4.00;99.90
17994;DHT22;9122;48.406;9.984;2024-01-30T07:58:27;3.10;99.90
17994;DHT22;9122;48.406;9.984;2024-01-30T08:01:14;3.20;99.90
17994;DHT22;9122;48.406;9.984;2024-01-30T08:03:58;2.90;99.90
17994;DHT22;9122;48.406;9.984;2024-01-30T08:06:42;3.30;99.90
17994;DHT22;9122;48.406;9.984;2024-01-30T08:09:27;3.60;99.90
17994;DHT22;9122;48.406;9.984;2024-01-30T08:12:11;3.30;99.90
17994;DHT22;9122;48.406;9.984;2024-01-30T08:14:56;4.00;99.90
17994;DHT22;9122;48.406;9.984;2024-01-30T08:17:40;4.80;99.90
17994;DHT22;9122;48.406;9.984;2024-01-30T08:20:25;4.40;99.90
17994;DHT22;9122;48.406;9.984;2024-01-30T08:23:10;4.50;99.90
17994;DHT22;9122;48.406;9.984;2024-01-30T08:25:56;4.70;99.60
17994;DHT22;9122;48.406;9.984;2024-01-30T08:28:40;4.90;99.10
17994;DHT22;9122;48.406;9.984;2024-01-30T08:31:24;5.10;98.90
17994;DHT22;9122;48.406;9.984;2024-01-30T08:34:09;6.00;99.00
17994;DHT22;9122;48.406;9.984;2024-01-30T08:36:53;5.90;98.90
17994;DHT22;9122;48.406;9.984;2024-01-30T08:39:37;5.00;98.60
17994;DHT22;9122;48.406;9.984;2024-01-30T08:42:22;5.40;98.70
17994;DHT22;9122;48.406;9.984;2024-01-30T08:45:06;5.10;98.80
17994;DHT22;9122;48.406;9.984;2024-01-30T08:47:50;5.30;98.90
17994;DHT22;9122;48.406;9.984;2024-01-30T08:53:20;5.40;98.80
17994;DHT22;9122;48.406;9.984;2024-01-30T08:56:06;6.30;99.40
17994;DHT22;9122;48.406;9.984;2024-01-30T08:58:50;5.40;99.10
17994;DHT22;9122;48.406;9.984;2024-01-30T09:01:35;5.40;99.90
17994;DHT22;9122;48.406;9.984;2024-01-30T09:04:19;5.50;99.10
17994;DHT22;9122;48.406;9.984;2024-01-30T09:07:03;5.60;99.90
17994;DHT22;9122;48.406;9.984;2024-01-30T09:12:34;5.70;98.80
17994;DHT22;9122;48.406;9.984;2024-01-30T09:15:19;5.60;99.00
17994;DHT22;9122;48.406;9.984;2024-01-30T09:18:04;5.80;99.00
17994;DHT22;9122;48.406;9.984;2024-01-30T09:20:48;5.80;98.90
17994;DHT22;9122;48.406;9.984;2024-01-30T09:23:33;5.90;98.90
17994;DHT22;9122;48.406;9.984;2024-01-30T09:26:17;5.90;99.00
17994;DHT22;9122;48.406;9.984;2024-01-30T09:29:01;7.30;99.40
17994;DHT22;9122;48.406;9.984;2024-01-30T09:31:46;5.90;99.00
17994;DHT22;9122;48.406;9.984;2024-01-30T09:34:31;5.60;98.90
17994;DHT22;9122;48.406;9.984;2024-01-30T09:37:16;6.00;99.10
17994;DHT22;9122;48.406;9.984;2024-01-30T09:42:47;6.00;98.90
17994;DHT22;9122;48.406;9.984;2024-01-30T09:45:35;6.00;99.90
17994;DHT22;9122;48.406;9.984;2024-01-30T09:48:19;6.20;99.40
17994;DHT22;9122;48.406;9.984;2024-01-30T09:51:04;6.50;99.30
17994;DHT22;9122;48.406;9.984;2024-01-30T09:53:49;6.30;99.90
17994;DHT22;9122;48.406;9.984;2024-01-30T09:56:33;5.70;98.90
17994;DHT22;9122;48.406;9.984;2024-01-30T09:59:17;6.30;99.10
17994;DHT22;9122;48.406;9.984;2024-01-30T10:02:02;6.30;99.00
17994;DHT22;9122;48.406;9.984;2024-01-30T10:04:49;6.30;99.10
17994;DHT22;9122;48.406;9.984;2024-01-30T10:07:34;7.40;99.30
17994;DHT22;9122;48.406;9.984;2024-01-30T10:10:18;6.40;99.90
17994;DHT22;9122;48.406;9.984;2024-01-30T10:13:04;6.40;99.00
17994;DHT22;9122;48.406;9.984;2024-01-30T10:15:48;6.50;99.00
17994;DHT22;9122;48.406;9.984;2024-01-30T10:18:32;6.50;99.10
17994;DHT22;9122;48.406;9.984;2024-01-30T10:21:18;6.50;98.70
17994;DHT22;9122;48.406;9.984;2024-01-30T10:24:02;6.60;99.10
17994;DHT22;9122;48.406;9.984;2024-01-30T10:26:47;6.70;99.10
17994;DHT22;9122;48.406;9.984;2024-01-30T10:29:32;6.70;99.00
17994;DHT22;9122;48.406;9.984;2024-01-30T10:32:17;7.10;99.00
17994;DHT22;9122;48.406;9.984;2024-01-30T10:37:47;7.30;98.20
17994;DHT22;9122;48.406;9.984;2024-01-30T10:40:33;7.60;98.10
17994;DHT22;9122;48.406;9.984;2024-01-30T10:43:22;7.80;97.70
17994;DHT22;9122;48.406;9.984;2024-01-30T10:46:19;7.90;97.40
17994;DHT22;9122;48.406;9.984;2024-01-30T10:49:04;8.00;97.20
17994;DHT22;9122;48.406;9.984;2024-01-30T10:51:50;7.90;97.20
17994;DHT22;9122;48.406;9.984;2024-01-30T10:54:36;7.90;97.30
17994;DHT22;9122;48.406;9.984;2024-01-30T10:57:23;7.80;97.20
17994;DHT22;9122;48.406;9.984;2024-01-30T11:00:10;7.50;97.20
17994;DHT22;9122;48.406;9.984;2024-01-30T11:02:56;7.80;97.30
17994;DHT22;9122;48.406;9.984;2024-01-30T11:05:41;7.90;97.40
17994;DHT22;9122;48.406;9.984;2024-01-30T11:08:25;7.80;97.50
17994;DHT22;9122;48.406;9.984;2024-01-30T11:11:12;7.80;97.50
17994;DHT22;9122;48.406;9.984;2024-01-30T11:14:00;7.70;97.80
17994;DHT22;9122;48.406;9.984;2024-01-30T11:16:45;7.80;97.60
17994;DHT22;9122;48.406;9.984;2024-01-30T11:19:31;7.70;97.60
17994;DHT22;9122;48.406;9.984;2024-01-30T11:22:19;7.90;99.90
17994;DHT22;9122;48.406;9.984;2024-01-30T11:25:04;7.80;97.80
17994;DHT22;9122;48.406;9.984;2024-01-30T11:27:56;7.80;97.80
17994;DHT22;9122;48.406;9.984;2024-01-30T11:30:40;7.80;97.80
17994;DHT22;9122;48.406;9.984;2024-01-30T11:33:28;7.90;97.80
17994;DHT22;9122;48.406;9.984;2024-01-30T11:36:18;7.90;97.80
17994;DHT22;9122;48.406;9.984;2024-01-30T11:39:07;8.00;97.90
17994;DHT22;9122;48.406;9.984;2024-01-30T11:41:52;7.90;99.90
17994;DHT22;9122;48.406;9.984;2024-01-30T11:44:37;8.20;98.00
17994;DHT22;9122;48.406;9.984;2024-01-30T11:47:22;7.90;97.90
17994;DHT22;9122;48.406;9.984;2024-01-30T11:50:07;9.30;98.30
17994;DHT22;9122;48.406;9.984;2024-01-30T11:52:52;8.20;98.00
17994;DHT22;9122;48.406;9.984;2024-01-30T11:55:37;7.90;97.90
17994;DHT22;9122;48.406;9.984;2024-01-30T11:58:25;7.90;97.60
17994;DHT22;9122;48.406;9.984;2024-01-30T12:01:11;8.00;99.90
17994;DHT22;9122;48.406;9.984;2024-01-30T12:03:55;8.00;97.90
17994;DHT22;9122;48.406;9.984;2024-01-30T12:06:41;8.00;98.00
17994;DHT22;9122;48.406;9.984;2024-01-30T12:09:25;8.10;98.00
17994;DHT22;9122;48.406;9.984;2024-01-30T12:12:11;8.00;98.00
17994;DHT22;9122;48.406;9.984;2024-01-30T12:17:40;8.00;97.70
17994;DHT22;9122;48.406;9.984;2024-01-30T12:20:25;8.40;98.20
17994;DHT22;9122;48.406;9.984;2024-01-30T12:23:12;8.10;98.10
17994;DHT22;9122;48.406;9.984;2024-01-30T12:25:57;8.10;98.10
17994;DHT22;9122;48.406;9.984;2024-01-30T12:28:49;8.10;99.90
17994;DHT22;9122;48.406;9.984;2024-01-30T12:31:34;8.10;98.10
17994;DHT22;9122;48.406;9.984;2024-01-30T12:34:18;8.10;98.10
17994;DHT22;9122;48.406;9.984;2024-01-30T12:37:04;8.20;98.00
17994;DHT22;9122;48.406;9.984;2024-01-30T12:39:53;8.20;98.00
17994;DHT22;9122;48.406;9.984;2024-01-30T12:42:38;8.20;98.00
17994;DHT22;9122;48.406;9.984;2024-01-30T12:45:22;8.20;97.90
17994;DHT22;9122;48.406;9.984;2024-01-30T12:48:06;8.20;99.90
17994;DHT22;9122;48.406;9.984;2024-01-30T12:50:51;8.20;97.90
17994;DHT22;9122;48.406;9.984;2024-01-30T12:53:35;8.30;97.90
17994;DHT22;9122;48.406;9.984;2024-01-30T12:56:19;8.80;98.10
17994;DHT22;9122;48.406;9.984;2024-01-30T12:59:04;8.30;97.90
17994;DHT22;9122;48.406;9.984;2024-01-30T13:01:48;8.40;97.90
17994;DHT22;9122;48.406;9.984;2024-01-30T13:07:17;8.40;97.50
17994;DHT22;9122;48.406;9.984;2024-01-30T13:10:02;8.50;97.80
17994;DHT22;9122;48.406;9.984;2024-01-30T13:12:47;8.50;97.70
17994;DHT22;9122;48.406;9.984;2024-01-30T13:15:32;8.50;97.70
17994;DHT22;9122;48.406;9.984;2024-01-30T13:18:16;8.50;97.80
17994;DHT22;9122;48.406;9.984;2024-01-30T13:21:00;8.60;97.80
17994;DHT22;9122;48.406;9.984;2024-01-30T13:23:49;8.60;99.90
17994;DHT22;9122;48.406;9.984;2024-01-30T13:26:37;8.60;98.00
17994;DHT22;9122;48.406;9.984;2024-01-30T13:29:21;8.60;97.90
17994;DHT22;9122;48.406;9.984;2024-01-30T13:32:06;8.80;97.90
17994;DHT22;9122;48.406;9.984;2024-01-30T13:34:50;8.70;97.90
17994;DHT22;9122;48.406;9.984;2024-01-30T13:37:34;8.70;97.90
17994;DHT22;9122;48.406;9.984;2024-01-30T13:40:19;8.70;98.00
17994;DHT22;9122;48.406;9.984;2024-01-30T13:43:04;8.70;98.00
17994;DHT22;9122;48.406;9.984;2024-01-30T13:45:49;8.70;98.10
17994;DHT22;9122;48.406;9.984;2024-01-30T13:48:33;8.80;98.10
17994;DHT22;9122;48.406;9.984;2024-01-30T13:51:17;8.80;98.10
17994;DHT22;9122;48.406;9.984;2024-01-30T13:54:02;8.80;98.20
17994;DHT22;9122;48.406;9.984;2024-01-30T13:56:46;8.80;98.30
17994;DHT22;9122;48.406;9.984;2024-01-30T13:59:31;8.90;99.90
17994;DHT22;9122;48.406;9.984;2024-01-30T14:02:15;8.80;98.30
17994;DHT22;9122;48.406;9.984;2024-01-30T14:04:59;9.50;98.40
17994;DHT22;9122;48.406;9.984;2024-01-30T14:07:44;8.80;99.90
17994;DHT22;9122;48.406;9.984;2024-01-30T14:10:29;8.80;98.10
17994;DHT22;9122;48.406;9.984;2024-01-30T14:13:13;8.90;98.20
17994;DHT22;9122;48.406;9.984;2024-01-30T14:15:58;9.00;98.20
17994;DHT22;9122;48.406;9.984;2024-01-30T14:18:43;8.90;98.30
17994;DHT22;9122;48.406;9.984;2024-01-30T14:21:28;9.90;98.60
17994;DHT22;9122;48.406;9.984;2024-01-30T14:24:12;8.30;98.10
17994;DHT22;9122;48.406;9.984;2024-01-30T14:26:57;8.90;98.30
17994;DHT22;9122;48.406;9.984;2024-01-30T14:29:41;8.90;98.40
17994;DHT22;9122;48.406;9.984;2024-01-30T14:32:27;8.90;98.40
17994;DHT22;9122;48.406;9.984;2024-01-30T14:35:11;9.60;98.70
17994;DHT22;9122;48.406;9.984;2024-01-30T14:37:55;8.90;98.40
17994;DHT22;9122;48.406;9.984;2024-01-30T14:40:41;8.90;98.50
17994;DHT22;9122;48.406;9.984;2024-01-30T14:43:26;8.90;98.50
17994;DHT22;9122;48.406;9.984;2024-01-30T14:46:10;8.80;98.50
17994;DHT22;9122;48.406;9.984;2024-01-30T14:52:49;8.90;98.60
17994;DHT22;9122;48.406;9.984;2024-01-30T14:55:34;8.90;98.70
17994;DHT22;9122;48.406;9.984;2024-01-30T15:02:14;8.90;98.70
17994;DHT22;9122;48.406;9.984;2024-01-30T15:04:58;8.90;98.80
17994;DHT22;9122;48.406;9.984;2024-01-30T15:11:37;9.00;98.80
17994;DHT22;9122;48.406;9.984;2024-01-30T15:14:23;9.10;99.90
17994;DHT22;9122;48.406;9.984;2024-01-30T15:21:03;9.00;98.80
17994;DHT22;9122;48.406;9.984;2024-01-30T15:23:47;9.00;98.90
17994;DHT22;9122;48.406;9.984;2024-01-30T15:30:26;9.00;98.90
17994;DHT22;9122;48.406;9.984;2024-01-30T15:33:10;9.00;99.90
17994;DHT22;9122;48.406;9.984;2024-01-30T15:35:54;9.00;98.90
17994;DHT22;9122;48.406;9.984;2024-01-30T15:38:38;9.00;98.90
17994;DHT22;9122;48.406;9.984;2024-01-30T15:41:23;9.20;98.90
17994;DHT22;9122;48.406;9.984;2024-01-30T15:48:02;9.00;98.80
17994;DHT22;9122;48.406;9.984;2024-01-30T15:54:41;9.00;98.90
17994;DHT22;9122;48.406;9.984;2024-01-30T15:57:25;9.10;99.90
17994;DHT22;9122;48.406;9.984;2024-01-30T16:04:04;9.00;99.90
17994;DHT22;9122;48.406;9.984;2024-01-30T16:06:48;9.00;99.90
17994;DHT22;9122;48.406;9.984;2024-01-30T16:09:33;8.90;98.90
17994;DHT22;9122;48.406;9.984;2024-01-30T16:12:17;8.90;98.90
17994;DHT22;9122;48.406;9.984;2024-01-30T16:15:02;8.90;98.90
17994;DHT22;9122;48.406;9.984;2024-01-30T16:17:48;8.90;99.00
17994;DHT22;9122;48.406;9.984;2024-01-30T16:20:32;8.90;99.00
17994;DHT22;9122;48.406;9.984;2024-01-30T16:23:17;8.70;98.90
17994;DHT22;9122;48.406;9.984;2024-01-30T16:28:46;8.90;98.70
17994;DHT22;9122;48.406;9.984;2024-01-30T16:31:30;8.90;99.00
17994;DHT22;9122;48.406;9.984;2024-01-30T16:34:14;8.90;99.00
17994;DHT22;9122;48.406;9.984;2024-01-30T16:36:58;8.90;99.00
17994;DHT22;9122;48.406;9.984;2024-01-30T16:42:28;8.90;98.80
17994;DHT22;9122;48.406;9.984;2024-01-30T16:45:12;8.90;99.10
17994;DHT22;9122;48.406;9.984;2024-01-30T16:47:56;8.90;99.20
17994;DHT22;9122;48.406;9.984;2024-01-30T16:50:41;8.90;99.20
17994;DHT22;9122;48.406;9.984;2024-01-30T16:53:25;8.40;99.20
17994;DHT22;9122;48.406;9.984;2024-01-30T16:56:10;8.80;99.30
17994;DHT22;9122;48.406;9.984;2024-01-30T16:58:55;8.90;99.00
17994;DHT22;9122;48.406;9.984;2024-01-30T17:01:39;8.90;99.30
17994;DHT22;9122;48.406;9.984;2024-01-30T17:07:08;8.80;98.90
17994;DHT22;9122;48.406;9.984;2024-01-30T17:09:53;8.80;99.30
17994;DHT22;9122;48.406;9.984;2024-01-30T17:12:38;8.90;99.20
17994;DHT22;9122;48.406;9.984;2024-01-30T17:15:23;8.80;99.20
17994;DHT22;9122;48.406;9.984;2024-01-30T17:18:08;8.90;99.20
17994;DHT22;9122;48.406;9.984;2024-01-30T17:20:52;8.80;99.10
17994;DHT22;9122;48.406;9.984;2024-01-30T17:23:36;8.80;99.10
17994;DHT22;9122;48.406;9.984;2024-01-30T17:26:21;8.80;99.90
17994;DHT22;9122;48.406;9.984;2024-01-30T17:29:07;8.80;99.20
17994;DHT22;9122;48.406;9.984;2024-01-30T17:31:51;8.80;99.20
17994;DHT22;9122;48.406;9.984;2024-01-30T17:34:35;9.30;99.30
17994;DHT22;9122;48.406;9.984;2024-01-30T17:40:05;8.80;98.80
17994;DHT22;9122;48.406;9.984;2024-01-30T17:42:51;8.70;99.90
17994;DHT22;9122;48.406;9.984;2024-01-30T17:45:35;8.70;99.00
17994;DHT22;9122;48.406;9.984;2024-01-30T17:48:21;8.80;99.90
17994;DHT22;9122;48.406;9.984;2024-01-30T17:53:50;8.70;98.50
17994;DHT22;9122;48.406;9.984;2024-01-30T17:56:36;8.80;98.90
17994;DHT22;9122;48.406;9.984;2024-01-30T17:59:21;8.70;98.70
17994;DHT22;9122;48.406;9.984;2024-01-30T18:02:06;8.70;98.70
17994;DHT22;9122;48.406;9.984;2024-01-30T18:04:51;8.70;98.70
17994;DHT22;9122;48.406;9.984;2024-01-30T18:10:22;8.70;98.40
17994;DHT22;9122;48.406;9.984;2024-01-30T18:13:06;8.50;98.60
17994;DHT22;9122;48.406;9.984;2024-01-30T18:15:53;8.70;98.80
17994;DHT22;9122;48.406;9.984;2024-01-30T18:18:37;9.60;99.00
17994;DHT22;9122;48.406;9.984;2024-01-30T18:21:22;8.70;98.70
17994;DHT22;9122;48.406;9.984;2024-01-30T18:24:06;8.80;99.90
17994;DHT22;9122;48.406;9.984;2024-01-30T18:26:50;8.70;98.70
17994;DHT22;9122;48.406;9.984;2024-01-30T18:29:35;8.70;98.70
17994;DHT22;9122;48.406;9.984;2024-01-30T18:32:20;8.70;98.60
17994;DHT22;9122;48.406;9.984;2024-01-30T18:35:05;8.70;98.50
17994;DHT22;9122;48.406;9.984;2024-01-30T18:37:50;8.70;98.50
17994;DHT22;9122;48.406;9.984;2024-01-30T18:40:34;8.70;98.40
17994;DHT22;9122;48.406;9.984;2024-01-30T18:43:18;8.60;98.40
17994;DHT22;9122;48.406;9.984;2024-01-30T18:46:02;8.60;98.30
17994;DHT22;9122;48.406;9.984;2024-01-30T18:48:47;8.60;98.40
17994;DHT22;9122;48.406;9.984;2024-01-30T18:51:32;8.60;98.30
17994;DHT22;9122;48.406;9.984;2024-01-30T18:54:16;8.70;99.90
17994;DHT22;9122;48.406;9.984;2024-01-30T18:57:00;8.60;98.20
17994;DHT22;9122;48.406;9.984;2024-01-30T18:59:45;8.60;98.30
17994;DHT22;9122;48.406;9.984;2024-01-30T19:05:14;8.60;97.90
17994;DHT22;9122;48.406;9.984;2024-01-30T19:07:59;8.50;97.90
17994;DHT22;9122;48.406;9.984;2024-01-30T19:13:29;8.40;97.90
17994;DHT22;9122;48.406;9.984;2024-01-30T19:16:14;8.50;98.20
17994;DHT22;9122;48.406;9.984;2024-01-30T19:21:44;8.50;99.90
17994;DHT22;9122;48.406;9.984;2024-01-30T19:24:29;8.50;99.90
17994;DHT22;9122;48.406;9.984;2024-01-30T19:27:14;8.30;97.90
17994;DHT22;9122;48.406;9.984;2024-01-30T19:29:58;8.30;98.50
17994;DHT22;9122;48.406;9.984;2024-01-30T19:32:45;8.30;98.10
17994;DHT22;9122;48.406;9.984;2024-01-30T19:35:29;8.30;98.20
17994;DHT22;9122;48.406;9.984;2024-01-30T19:38:13;8.40;98.10
17994;DHT22;9122;48.406;9.984;2024-01-30T19:40:59;8.20;98.10
17994;DHT22;9122;48.406;9.984;2024-01-30T19:43:43;8.20;99.90
17994;DHT22;9122;48.406;9.984;2024-01-30T19:46:27;8.20;98.10
17994;DHT22;9122;48.406;9.984;2024-01-30T19:51:57;8.90;98.10
17994;DHT22;9122;48.406;9.984;2024-01-30T19:54:47;9.20;98.50
17994;DHT22;9122;48.406;9.984;2024-01-30T19:57:31;8.20;98.20
17994;DHT22;9122;48.406;9.984;2024-01-30T20:00:16;8.20;98.20